sensor_id;sensor_type;location;lat;lon;timestamp;P1;durP1;ratioP1;P2;durP2;ratioP2
21589;SDS011;10957;50.968;6.828;2022-11-25T00:03:13;9.50;;;9.00;;
21589;SDS011;10957;50.968;6.828;2022-11-25T00:08:14;9.10;;;8.68;;
21589;SDS011;10957;50.968;6.828;2022-11-25T00:13:14;9.00;;;8.60;;
21589;SDS011;10957;50.968;6.828;2022-11-25T00:18:15;8.80;;;8.40;;
21589;SDS011;10957;50.968;6.828;2022-11-25T00:23:16;9.02;;;8.63;;
21589;SDS011;10957;50.968;6.828;2022-11-25T00:28:16;9.30;;;8.80;;
21589;SDS011;10957;50.968;6.828;2022-11-25T00:33:17;8.82;;;8.43;;
21589;SDS011;10957;50.968;6.828;2022-11-25T00:38:20;9.00;;;8.60;;
21589;SDS011;10957;50.968;6.828;2022-11-25T00:43:21;9.40;;;8.90;;
21589;SDS011;10957;50.968;6.828;2022-11-25T00:48:40;8.68;;;8.27;;
21589;SDS011;10957;50.968;6.828;2022-11-25T00:53:40;8.85;;;8.45;;
21589;SDS011;10957;50.968;6.828;2022-11-25T00:58:42;9.02;;;8.63;;
21589;SDS011;10957;50.968;6.828;2022-11-25T01:03:44;9.30;;;8.80;;
21589;SDS011;10957;50.968;6.828;2022-11-25T01:08:47;9.27;;;8.77;;
21589;SDS011;10957;50.968;6.828;2022-11-25T01:13:48;9.27;;;8.77;;
21589;SDS011;10957;50.968;6.828;2022-11-25T01:18:50;10.40;;;8.93;;
21589;SDS011;10957;50.968;6.828;2022-11-25T01:23:52;9.40;;;8.90;;
21589;SDS011;10957;50.968;6.828;2022-11-25T01:28:58;8.93;;;8.52;;
21589;SDS011;10957;50.968;6.828;2022-11-25T01:34:05;8.50;;;8.10;;
21589;SDS011;10957;50.968;6.828;2022-11-25T01:39:12;8.38;;;7.97;;
21589;SDS011;10957;50.968;6.828;2022-11-25T01:44:22;9.40;;;8.80;;
21589;SDS011;10957;50.968;6.828;2022-11-25T01:54:35;8.50;;;8.10;;
21589;SDS011;10957;50.968;6.828;2022-11-25T01:59:42;9.00;;;8.43;;
21589;SDS011;10957;50.968;6.828;2022-11-25T02:04:47;8.93;;;8.52;;
21589;SDS011;10957;50.968;6.828;2022-11-25T02:09:48;8.30;;;7.90;;
21589;SDS011;10957;50.968;6.828;2022-11-25T02:14:49;8.27;;;7.88;;
21589;SDS011;10957;50.968;6.828;2022-11-25T02:19:55;8.25;;;7.85;;
21589;SDS011;10957;50.968;6.828;2022-11-25T02:30:14;8.48;;;8.07;;
21589;SDS011;10957;50.968;6.828;2022-11-25T02:35:29;8.40;;;8.00;;
21589;SDS011;10957;50.968;6.828;2022-11-25T02:40:54;9.30;;;8.65;;
21589;SDS011;10957;50.968;6.828;2022-11-25T02:46:10;8.80;;;8.32;;
21589;SDS011;10957;50.968;6.828;2022-11-25T02:51:13;8.50;;;8.10;;
21589;SDS011;10957;50.968;6.828;2022-11-25T02:56:16;8.30;;;7.90;;
21589;SDS011;10957;50.968;6.828;2022-11-25T03:01:20;8.40;;;8.00;;
21589;SDS011;10957;50.968;6.828;2022-11-25T03:06:23;8.30;;;7.90;;
21589;SDS011;10957;50.968;6.828;2022-11-25T03:11:24;8.52;;;8.13;;
21589;SDS011;10957;50.968;6.828;2022-11-25T03:16:45;8.68;;;8.27;;
21589;SDS011;10957;50.968;6.828;2022-11-25T03:21:46;8.25;;;7.85;;
21589;SDS011;10957;50.968;6.828;2022-11-25T03:26:46;8.60;;;8.20;;
21589;SDS011;10957;50.968;6.828;2022-11-25T03:31:47;8.52;;;8.13;;
21589;SDS011;10957;50.968;6.828;2022-11-25T03:36:48;8.40;;;8.00;;
21589;SDS011;10957;50.968;6.828;2022-11-25T03:41:49;8.60;;;8.20;;
21589;SDS011;10957;50.968;6.828;2022-11-25T03:46:51;8.43;;;8.02;;
21589;SDS011;10957;50.968;6.828;2022-11-25T03:51:51;8.50;;;8.10;;
21589;SDS011;10957;50.968;6.828;2022-11-25T03:56:54;8.50;;;8.10;;
21589;SDS011;10957;50.968;6.828;2022-11-25T04:01:55;9.43;;;8.93;;
21589;SDS011;10957;50.968;6.828;2022-11-25T04:06:56;8.30;;;7.90;;
21589;SDS011;10957;50.968;6.828;2022-11-25T04:11:56;8.30;;;7.90;;
21589;SDS011;10957;50.968;6.828;2022-11-25T04:17:26;8.40;;;8.00;;
21589;SDS011;10957;50.968;6.828;2022-11-25T04:22:27;8.48;;;8.07;;
21589;SDS011;10957;50.968;6.828;2022-11-25T04:27:29;8.18;;;7.78;;
21589;SDS011;10957;50.968;6.828;2022-11-25T04:32:30;8.48;;;8.07;;
21589;SDS011;10957;50.968;6.828;2022-11-25T04:37:32;8.93;;;8.52;;
21589;SDS011;10957;50.968;6.828;2022-11-25T04:42:33;8.77;;;8.38;;
21589;SDS011;10957;50.968;6.828;2022-11-25T04:47:38;8.82;;;8.43;;
21589;SDS011;10957;50.968;6.828;2022-11-25T04:52:39;9.60;;;9.10;;
21589;SDS011;10957;50.968;6.828;2022-11-25T04:57:41;9.38;;;8.88;;
21589;SDS011;10957;50.968;6.828;2022-11-25T05:02:43;13.43;;;12.73;;
21589;SDS011;10957;50.968;6.828;2022-11-25T05:07:52;8.30;;;7.90;;
21589;SDS011;10957;50.968;6.828;2022-11-25T05:12:54;8.32;;;7.93;;
21589;SDS011;10957;50.968;6.828;2022-11-25T05:17:56;8.35;;;7.95;;
21589;SDS011;10957;50.968;6.828;2022-11-25T05:23:12;8.48;;;8.07;;
21589;SDS011;10957;50.968;6.828;2022-11-25T05:28:13;8.35;;;7.95;;
21589;SDS011;10957;50.968;6.828;2022-11-25T05:33:14;8.52;;;8.13;;
21589;SDS011;10957;50.968;6.828;2022-11-25T05:38:15;8.90;;;8.50;;
21589;SDS011;10957;50.968;6.828;2022-11-25T05:43:17;10.32;;;9.55;;
21589;SDS011;10957;50.968;6.828;2022-11-25T05:48:18;8.63;;;8.23;;
21589;SDS011;10957;50.968;6.828;2022-11-25T05:53:20;8.80;;;8.40;;
21589;SDS011;10957;50.968;6.828;2022-11-25T05:58:23;8.70;;;8.30;;
21589;SDS011;10957;50.968;6.828;2022-11-25T06:03:28;8.70;;;8.30;;
21589;SDS011;10957;50.968;6.828;2022-11-25T06:08:29;8.80;;;8.40;;
21589;SDS011;10957;50.968;6.828;2022-11-25T06:13:30;9.25;;;8.77;;
21589;SDS011;10957;50.968;6.828;2022-11-25T06:18:31;8.50;;;8.10;;
21589;SDS011;10957;50.968;6.828;2022-11-25T06:23:32;8.63;;;8.23;;
21589;SDS011;10957;50.968;6.828;2022-11-25T06:28:35;8.32;;;7.93;;
21589;SDS011;10957;50.968;6.828;2022-11-25T06:33:36;8.80;;;8.40;;
21589;SDS011;10957;50.968;6.828;2022-11-25T06:38:39;8.95;;;8.52;;
21589;SDS011;10957;50.968;6.828;2022-11-25T06:43:40;8.95;;;8.55;;
21589;SDS011;10957;50.968;6.828;2022-11-25T06:48:41;9.52;;;9.02;;
21589;SDS011;10957;50.968;6.828;2022-11-25T06:53:44;10.27;;;9.77;;
21589;SDS011;10957;50.968;6.828;2022-11-25T06:58:45;10.55;;;9.95;;
21589;SDS011;10957;50.968;6.828;2022-11-25T07:03:48;9.35;;;8.85;;
21589;SDS011;10957;50.968;6.828;2022-11-25T07:08:53;9.50;;;9.00;;
21589;SDS011;10957;50.968;6.828;2022-11-25T07:13:56;10.00;;;9.50;;
21589;SDS011;10957;50.968;6.828;2022-11-25T07:18:58;8.65;;;8.25;;
21589;SDS011;10957;50.968;6.828;2022-11-25T07:24:04;9.30;;;8.80;;
21589;SDS011;10957;50.968;6.828;2022-11-25T07:29:07;8.63;;;8.23;;
21589;SDS011;10957;50.968;6.828;2022-11-25T07:34:11;9.05;;;8.65;;
21589;SDS011;10957;50.968;6.828;2022-11-25T07:39:15;8.90;;;8.50;;
21589;SDS011;10957;50.968;6.828;2022-11-25T07:44:18;10.98;;;10.05;;
21589;SDS011;10957;50.968;6.828;2022-11-25T07:49:34;8.82;;;8.43;;
21589;SDS011;10957;50.968;6.828;2022-11-25T07:54:35;9.43;;;8.93;;
21589;SDS011;10957;50.968;6.828;2022-11-25T07:59:36;9.05;;;8.55;;
21589;SDS011;10957;50.968;6.828;2022-11-25T08:04:40;8.50;;;8.10;;
21589;SDS011;10957;50.968;6.828;2022-11-25T08:09:40;9.10;;;8.60;;
21589;SDS011;10957;50.968;6.828;2022-11-25T08:14:41;10.35;;;9.75;;
21589;SDS011;10957;50.968;6.828;2022-11-25T08:19:42;8.73;;;8.32;;
21589;SDS011;10957;50.968;6.828;2022-11-25T08:24:43;9.50;;;9.00;;
21589;SDS011;10957;50.968;6.828;2022-11-25T08:29:43;9.00;;;8.50;;
21589;SDS011;10957;50.968;6.828;2022-11-25T08:34:44;9.20;;;8.70;;
21589;SDS011;10957;50.968;6.828;2022-11-25T08:39:47;9.00;;;8.55;;
21589;SDS011;10957;50.968;6.828;2022-11-25T08:44:53;9.40;;;8.90;;
21589;SDS011;10957;50.968;6.828;2022-11-25T08:49:54;10.18;;;9.57;;
21589;SDS011;10957;50.968;6.828;2022-11-25T08:54:55;8.77;;;8.38;;
21589;SDS011;10957;50.968;6.828;2022-11-25T08:59:56;9.20;;;8.70;;
21589;SDS011;10957;50.968;6.828;2022-11-25T09:04:57;9.32;;;8.82;;
21589;SDS011;10957;50.968;6.828;2022-11-25T09:09:57;9.50;;;9.00;;
21589;SDS011;10957;50.968;6.828;2022-11-25T09:14:58;9.25;;;8.75;;
21589;SDS011;10957;50.968;6.828;2022-11-25T09:19:59;9.30;;;8.80;;
21589;SDS011;10957;50.968;6.828;2022-11-25T09:25:00;8.77;;;8.38;;
21589;SDS011;10957;50.968;6.828;2022-11-25T09:30:00;9.60;;;9.10;;
21589;SDS011;10957;50.968;6.828;2022-11-25T09:35:01;8.95;;;8.55;;
21589;SDS011;10957;50.968;6.828;2022-11-25T09:40:03;9.00;;;8.60;;
21589;SDS011;10957;50.968;6.828;2022-11-25T09:45:16;8.93;;;8.52;;
21589;SDS011;10957;50.968;6.828;2022-11-25T09:56:01;8.55;;;8.15;;
21589;SDS011;10957;50.968;6.828;2022-11-25T10:01:05;8.30;;;7.90;;
21589;SDS011;10957;50.968;6.828;2022-11-25T10:11:27;8.40;;;8.00;;
21589;SDS011;10957;50.968;6.828;2022-11-25T10:16:44;8.40;;;8.00;;
21589;SDS011;10957;50.968;6.828;2022-11-25T10:21:50;8.07;;;7.68;;
21589;SDS011;10957;50.968;6.828;2022-11-25T10:26:59;8.38;;;7.97;;
21589;SDS011;10957;50.968;6.828;2022-11-25T10:32:13;8.27;;;7.88;;
21589;SDS011;10957;50.968;6.828;2022-11-25T10:37:25;8.73;;;8.32;;
21589;SDS011;10957;50.968;6.828;2022-11-25T10:42:29;8.90;;;8.50;;
21589;SDS011;10957;50.968;6.828;2022-11-25T10:52:56;9.02;;;8.43;;
21589;SDS011;10957;50.968;6.828;2022-11-25T10:58:18;8.60;;;8.20;;
21589;SDS011;10957;50.968;6.828;2022-11-25T11:03:25;8.38;;;7.97;;
21589;SDS011;10957;50.968;6.828;2022-11-25T11:08:27;8.00;;;7.60;;
21589;SDS011;10957;50.968;6.828;2022-11-25T11:13:37;8.18;;;7.78;;
21589;SDS011;10957;50.968;6.828;2022-11-25T11:18:39;7.78;;;7.38;;
21589;SDS011;10957;50.968;6.828;2022-11-25T11:23:51;7.82;;;7.43;;
21589;SDS011;10957;50.968;6.828;2022-11-25T11:28:57;7.90;;;7.50;;
21589;SDS011;10957;50.968;6.828;2022-11-25T11:34:07;7.18;;;6.88;;
21589;SDS011;10957;50.968;6.828;2022-11-25T11:44:52;7.50;;;7.10;;
21589;SDS011;10957;50.968;6.828;2022-11-25T12:06:11;7.88;;;7.47;;
21589;SDS011;10957;50.968;6.828;2022-11-25T12:11:16;7.93;;;7.53;;
21589;SDS011;10957;50.968;6.828;2022-11-25T12:21:39;8.40;;;8.00;;
21589;SDS011;10957;50.968;6.828;2022-11-25T12:26:53;9.18;;;8.63;;
21589;SDS011;10957;50.968;6.828;2022-11-25T12:32:02;7.80;;;7.40;;
21589;SDS011;10957;50.968;6.828;2022-11-25T12:37:11;8.20;;;7.80;;
21589;SDS011;10957;50.968;6.828;2022-11-25T12:42:19;7.55;;;7.18;;
21589;SDS011;10957;50.968;6.828;2022-11-25T12:47:24;8.20;;;7.80;;
21589;SDS011;10957;50.968;6.828;2022-11-25T13:03:46;7.93;;;7.53;;
21589;SDS011;10957;50.968;6.828;2022-11-25T13:09:25;7.40;;;7.10;;
21589;SDS011;10957;50.968;6.828;2022-11-25T13:25:26;7.25;;;6.95;;
21589;SDS011;10957;50.968;6.828;2022-11-25T13:35:33;7.95;;;7.53;;
21589;SDS011;10957;50.968;6.828;2022-11-25T13:40:35;7.40;;;7.10;;
21589;SDS011;10957;50.968;6.828;2022-11-25T13:45:41;7.07;;;6.78;;
21589;SDS011;10957;50.968;6.828;2022-11-25T13:50:42;7.40;;;7.10;;
21589;SDS011;10957;50.968;6.828;2022-11-25T13:55:44;7.20;;;6.90;;
21589;SDS011;10957;50.968;6.828;2022-11-25T14:06:05;6.85;;;6.55;;
21589;SDS011;10957;50.968;6.828;2022-11-25T14:11:36;7.03;;;6.63;;
21589;SDS011;10957;50.968;6.828;2022-11-25T14:17:12;7.35;;;7.05;;
21589;SDS011;10957;50.968;6.828;2022-11-25T14:22:22;7.35;;;7.05;;
21589;SDS011;10957;50.968;6.828;2022-11-25T14:27:34;7.57;;;7.18;;
21589;SDS011;10957;50.968;6.828;2022-11-25T14:42:50;7.93;;;7.53;;
21589;SDS011;10957;50.968;6.828;2022-11-25T14:47:57;8.05;;;7.65;;
21589;SDS011;10957;50.968;6.828;2022-11-25T14:53:11;7.75;;;7.35;;
21589;SDS011;10957;50.968;6.828;2022-11-25T14:58:14;7.70;;;7.30;;
21589;SDS011;10957;50.968;6.828;2022-11-25T15:03:16;7.93;;;7.53;;
21589;SDS011;10957;50.968;6.828;2022-11-25T15:08:19;7.40;;;7.10;;
21589;SDS011;10957;50.968;6.828;2022-11-25T15:13:31;8.30;;;7.90;;
21589;SDS011;10957;50.968;6.828;2022-11-25T15:18:37;8.45;;;8.05;;
21589;SDS011;10957;50.968;6.828;2022-11-25T15:23:48;8.40;;;8.00;;
21589;SDS011;10957;50.968;6.828;2022-11-25T15:28:55;8.27;;;7.88;;
21589;SDS011;10957;50.968;6.828;2022-11-25T15:34:01;8.75;;;8.30;;
21589;SDS011;10957;50.968;6.828;2022-11-25T15:39:13;8.50;;;8.10;;
21589;SDS011;10957;50.968;6.828;2022-11-25T15:49:28;8.40;;;8.00;;
21589;SDS011;10957;50.968;6.828;2022-11-25T15:54:30;8.40;;;8.00;;
21589;SDS011;10957;50.968;6.828;2022-11-25T15:59:38;8.15;;;7.75;;
21589;SDS011;10957;50.968;6.828;2022-11-25T16:04:47;9.48;;;8.90;;
21589;SDS011;10957;50.968;6.828;2022-11-25T16:09:51;8.40;;;8.00;;
21589;SDS011;10957;50.968;6.828;2022-11-25T16:14:51;9.35;;;8.75;;
21589;SDS011;10957;50.968;6.828;2022-11-25T16:19:52;9.27;;;8.77;;
21589;SDS011;10957;50.968;6.828;2022-11-25T16:24:53;9.05;;;8.55;;
21589;SDS011;10957;50.968;6.828;2022-11-25T16:29:55;8.20;;;7.80;;
21589;SDS011;10957;50.968;6.828;2022-11-25T16:35:17;10.25;;;9.50;;
21589;SDS011;10957;50.968;6.828;2022-11-25T16:40:21;9.00;;;8.45;;
21589;SDS011;10957;50.968;6.828;2022-11-25T16:45:23;9.10;;;8.60;;
21589;SDS011;10957;50.968;6.828;2022-11-25T16:50:25;8.20;;;7.80;;
21589;SDS011;10957;50.968;6.828;2022-11-25T16:55:26;8.43;;;8.02;;
21589;SDS011;10957;50.968;6.828;2022-11-25T17:00:27;9.63;;;9.02;;
21589;SDS011;10957;50.968;6.828;2022-11-25T17:05:28;8.85;;;8.35;;
21589;SDS011;10957;50.968;6.828;2022-11-25T17:10:29;8.52;;;8.13;;
21589;SDS011;10957;50.968;6.828;2022-11-25T17:15:31;8.18;;;7.78;;
21589;SDS011;10957;50.968;6.828;2022-11-25T17:20:34;8.20;;;7.80;;
21589;SDS011;10957;50.968;6.828;2022-11-25T17:25:34;8.15;;;7.75;;
21589;SDS011;10957;50.968;6.828;2022-11-25T17:30:35;8.07;;;7.68;;
21589;SDS011;10957;50.968;6.828;2022-11-25T17:35:38;9.13;;;8.63;;
21589;SDS011;10957;50.968;6.828;2022-11-25T17:40:39;8.50;;;8.10;;
21589;SDS011;10957;50.968;6.828;2022-11-25T17:45:42;8.20;;;7.80;;
21589;SDS011;10957;50.968;6.828;2022-11-25T17:50:44;9.43;;;8.93;;
21589;SDS011;10957;50.968;6.828;2022-11-25T17:55:46;8.35;;;7.85;;
21589;SDS011;10957;50.968;6.828;2022-11-25T18:00:47;7.90;;;7.50;;
21589;SDS011;10957;50.968;6.828;2022-11-25T18:05:48;8.00;;;7.60;;
21589;SDS011;10957;50.968;6.828;2022-11-25T18:10:48;8.60;;;8.15;;
21589;SDS011;10957;50.968;6.828;2022-11-25T18:15:49;7.90;;;7.50;;
21589;SDS011;10957;50.968;6.828;2022-11-25T18:20:51;7.40;;;7.10;;
21589;SDS011;10957;50.968;6.828;2022-11-25T18:25:53;8.70;;;8.20;;
21589;SDS011;10957;50.968;6.828;2022-11-25T18:30:56;7.78;;;7.40;;
21589;SDS011;10957;50.968;6.828;2022-11-25T18:36:00;7.10;;;6.80;;
21589;SDS011;10957;50.968;6.828;2022-11-25T18:41:00;7.68;;;7.28;;
21589;SDS011;10957;50.968;6.828;2022-11-25T18:46:01;8.02;;;7.57;;
21589;SDS011;10957;50.968;6.828;2022-11-25T18:51:04;7.10;;;6.80;;
21589;SDS011;10957;50.968;6.828;2022-11-25T18:56:05;8.23;;;7.65;;
21589;SDS011;10957;50.968;6.828;2022-11-25T19:01:11;7.88;;;7.43;;
21589;SDS011;10957;50.968;6.828;2022-11-25T19:06:12;7.00;;;6.70;;
21589;SDS011;10957;50.968;6.828;2022-11-25T19:11:18;7.88;;;7.47;;
21589;SDS011;10957;50.968;6.828;2022-11-25T19:16:25;7.10;;;6.80;;
21589;SDS011;10957;50.968;6.828;2022-11-25T19:21:27;7.45;;;7.05;;
21589;SDS011;10957;50.968;6.828;2022-11-25T19:26:30;7.18;;;6.88;;
21589;SDS011;10957;50.968;6.828;2022-11-25T19:31:38;7.15;;;6.85;;
21589;SDS011;10957;50.968;6.828;2022-11-25T19:36:39;7.40;;;7.10;;
21589;SDS011;10957;50.968;6.828;2022-11-25T19:41:39;8.23;;;7.65;;
21589;SDS011;10957;50.968;6.828;2022-11-25T19:46:45;7.65;;;7.25;;
21589;SDS011;10957;50.968;6.828;2022-11-25T19:51:47;7.80;;;7.40;;
21589;SDS011;10957;50.968;6.828;2022-11-25T19:56:48;7.63;;;7.22;;
21589;SDS011;10957;50.968;6.828;2022-11-25T20:01:48;8.43;;;7.82;;
21589;SDS011;10957;50.968;6.828;2022-11-25T20:06:49;8.30;;;7.78;;
21589;SDS011;10957;50.968;6.828;2022-11-25T20:11:50;7.32;;;7.00;;
21589;SDS011;10957;50.968;6.828;2022-11-25T20:16:55;9.25;;;8.55;;
21589;SDS011;10957;50.968;6.828;2022-11-25T20:21:55;6.93;;;6.63;;
21589;SDS011;10957;50.968;6.828;2022-11-25T20:26:56;7.00;;;6.70;;
21589;SDS011;10957;50.968;6.828;2022-11-25T20:31:57;7.07;;;6.78;;
21589;SDS011;10957;50.968;6.828;2022-11-25T20:36:58;7.30;;;6.90;;
21589;SDS011;10957;50.968;6.828;2022-11-25T20:41:58;8.65;;;8.05;;
21589;SDS011;10957;50.968;6.828;2022-11-25T20:46:59;7.80;;;7.40;;
21589;SDS011;10957;50.968;6.828;2022-11-25T20:52:00;8.63;;;8.23;;
21589;SDS011;10957;50.968;6.828;2022-11-25T20:57:01;8.55;;;8.15;;
21589;SDS011;10957;50.968;6.828;2022-11-25T21:02:02;8.18;;;7.78;;
21589;SDS011;10957;50.968;6.828;2022-11-25T21:07:05;8.38;;;7.97;;
21589;SDS011;10957;50.968;6.828;2022-11-25T21:12:12;8.80;;;8.40;;
21589;SDS011;10957;50.968;6.828;2022-11-25T21:17:14;8.98;;;8.57;;
21589;SDS011;10957;50.968;6.828;2022-11-25T21:22:14;9.68;;;9.13;;
21589;SDS011;10957;50.968;6.828;2022-11-25T21:27:15;9.00;;;8.50;;
21589;SDS011;10957;50.968;6.828;2022-11-25T21:32:23;8.77;;;8.38;;
21589;SDS011;10957;50.968;6.828;2022-11-25T21:37:27;9.45;;;8.90;;
21589;SDS011;10957;50.968;6.828;2022-11-25T21:42:31;9.85;;;9.35;;
21589;SDS011;10957;50.968;6.828;2022-11-25T21:47:32;10.15;;;9.65;;
21589;SDS011;10957;50.968;6.828;2022-11-25T21:52:32;9.60;;;9.10;;
21589;SDS011;10957;50.968;6.828;2022-11-25T21:57:33;9.68;;;9.18;;
21589;SDS011;10957;50.968;6.828;2022-11-25T22:02:34;9.70;;;9.20;;
21589;SDS011;10957;50.968;6.828;2022-11-25T22:07:35;9.50;;;9.00;;
21589;SDS011;10957;50.968;6.828;2022-11-25T22:12:39;10.07;;;9.57;;
21589;SDS011;10957;50.968;6.828;2022-11-25T22:17:42;10.35;;;9.85;;
21589;SDS011;10957;50.968;6.828;2022-11-25T22:22:47;9.60;;;9.10;;
21589;SDS011;10957;50.968;6.828;2022-11-25T22:27:48;10.18;;;9.68;;
21589;SDS011;10957;50.968;6.828;2022-11-25T22:32:54;9.90;;;9.40;;
21589;SDS011;10957;50.968;6.828;2022-11-25T22:38:05;10.95;;;10.25;;
21589;SDS011;10957;50.968;6.828;2022-11-25T22:43:15;10.15;;;9.65;;
21589;SDS011;10957;50.968;6.828;2022-11-25T22:48:27;10.73;;;10.13;;
21589;SDS011;10957;50.968;6.828;2022-11-25T22:53:31;10.77;;;10.18;;
21589;SDS011;10957;50.968;6.828;2022-11-25T22:58:34;10.02;;;9.52;;
21589;SDS011;10957;50.968;6.828;2022-11-25T23:03:38;10.00;;;9.50;;
21589;SDS011;10957;50.968;6.828;2022-11-25T23:08:43;11.13;;;10.50;;
21589;SDS011;10957;50.968;6.828;2022-11-25T23:13:45;10.25;;;9.75;;
21589;SDS011;10957;50.968;6.828;2022-11-25T23:18:48;10.60;;;10.00;;
21589;SDS011;10957;50.968;6.828;2022-11-25T23:23:52;10.23;;;9.73;;
21589;SDS011;10957;50.968;6.828;2022-11-25T23:28:53;10.70;;;10.10;;
21589;SDS011;10957;50.968;6.828;2022-11-25T23:33:56;11.15;;;10.55;;
21589;SDS011;10957;50.968;6.828;2022-11-25T23:38:58;10.43;;;9.85;;
21589;SDS011;10957;50.968;6.828;2022-11-25T23:44:11;10.15;;;9.65;;
21589;SDS011;10957;50.968;6.828;2022-11-25T23:54:32;11.60;;;10.90;;
21589;SDS011;10957;50.968;6.828;2022-11-25T23:59:41;10.23;;;9.73;;
